Weinstadt-Endersbach, Germany

3:28 AM CET on February 24, 2017 (GMT +0100)
Stuttgart | | Change Station

Elev 1375 ft 48.68 °N, 9.22 °E | Updated 8 minutes ago

Overcast
Overcast
43 °F
Feels Like 32 °F
N
30
Wind Variable Wind from West

Today
High -- | Low -- °F
--% Chance of Precip.
Yesterday
High -- | Low -- °F
Precip. -- in
Pressure 29.68 in
Visibility 6.2 miles
Clouds Few 2200 ft
Scattered Clouds 3800 ft
Mostly Cloudy 5500 ft
Windchill 32 °F
Dew Point 32 °F
Humidity 66%
Rainfall 0.00 in
Snow Depth Not available.
7:14 AM 5:58 PM
Waning Crescent, 7% visible
METAR EDDS 240220Z 27026KT 9999 FEW022 SCT038 BKN055 06/M00 Q1005
Pressure 29.68 in
Visibility 6.2 miles
Clouds Few 2200 ft
Scattered Clouds 3800 ft
Mostly Cloudy 5500 ft
Windchill 32 °F
Dew Point 32 °F
Humidity 66%
Rainfall 0.00 in
Snow Depth Not available.
7:14 AM 5:58 PM
Waning Crescent, 7% visible
METAR EDDS 240220Z 27026KT 9999 FEW022 SCT038 BKN055 06/M00 Q1005

Get Your Daily Forecast Email!

Thanks for signing up!

Be on the lookout for a verification email in your inbox.

You'll start receiving the daily forecast at 8 AM.

×

10-Day Weather Forecast

×

Almanac

Astronomy

Feb. 24, 2017 Rise Set
Actual Time
Civil Twilight
Nautical Twilight
Astronomical Twilight
Moon
Length of Visible Light
Length of Day
Tomorrow will be .
, % of the Moon is Illuminated

Today's Extremes

Country Highs Country Lows

Community

WunderPhotos

Upload Photos

1,962,540 photos uploaded!

WunderBlog® & News

Nearby

Air Quality

  Air Quality AQ Index Pollutant
Not available.

Snow Depth

Station Depth Elevation

Earthquake Activity

City Distance Mag. Time & Date
Minimum magnitude displayed is 2.5.

Coastal Water Temperatures

Place Temperature

Stations

Nearby Weather Stations

Station Location Temp. Windchill Dew Point Humidity Wind Precip. Elev Updated Type